sensor_id;sensor_type;location;lat;lon;timestamp;temperature;humidity
51011;DHT22;37038;50.182;8.624;2023-06-14T00:01:17;17.30;17.30
51011;DHT22;37038;50.182;8.624;2023-06-14T00:04:04;17.30;17.10
51011;DHT22;37038;50.182;8.624;2023-06-14T00:06:56;17.30;17.30
51011;DHT22;37038;50.182;8.624;2023-06-14T00:09:44;17.20;16.90
51011;DHT22;37038;50.182;8.624;2023-06-14T00:12:33;17.30;16.70
51011;DHT22;37038;50.182;8.624;2023-06-14T00:15:20;17.20;17.20
51011;DHT22;37038;50.182;8.624;2023-06-14T00:18:08;17.20;16.90
51011;DHT22;37038;50.182;8.624;2023-06-14T00:20:59;17.10;17.10
51011;DHT22;37038;50.182;8.624;2023-06-14T00:23:46;17.20;17.20
51011;DHT22;37038;50.182;8.624;2023-06-14T00:26:34;17.30;17.20
51011;DHT22;37038;50.182;8.624;2023-06-14T00:29:21;17.20;17.10
51011;DHT22;37038;50.182;8.624;2023-06-14T00:32:09;17.10;17.00
51011;DHT22;37038;50.182;8.624;2023-06-14T00:34:57;17.20;16.90
51011;DHT22;37038;50.182;8.624;2023-06-14T00:37:44;17.20;17.60
51011;DHT22;37038;50.182;8.624;2023-06-14T00:40:32;17.20;17.60
51011;DHT22;37038;50.182;8.624;2023-06-14T00:43:19;17.10;17.80
51011;DHT22;37038;50.182;8.624;2023-06-14T00:46:07;17.10;18.20
51011;DHT22;37038;50.182;8.624;2023-06-14T00:48:56;17.10;18.20
51011;DHT22;37038;50.182;8.624;2023-06-14T00:51:44;17.10;17.90
51011;DHT22;37038;50.182;8.624;2023-06-14T00:54:32;17.10;17.60
51011;DHT22;37038;50.182;8.624;2023-06-14T00:57:20;17.10;17.90
51011;DHT22;37038;50.182;8.624;2023-06-14T01:00:08;17.10;18.20
51011;DHT22;37038;50.182;8.624;2023-06-14T01:02:57;17.10;17.70
51011;DHT22;37038;50.182;8.624;2023-06-14T01:05:45;17.10;17.60
51011;DHT22;37038;50.182;8.624;2023-06-14T01:08:53;17.10;17.80
51011;DHT22;37038;50.182;8.624;2023-06-14T01:12:03;17.10;17.60
51011;DHT22;37038;50.182;8.624;2023-06-14T01:14:54;17.10;17.70
51011;DHT22;37038;50.182;8.624;2023-06-14T01:17:42;17.00;17.90
51011;DHT22;37038;50.182;8.624;2023-06-14T01:20:33;17.00;18.30
51011;DHT22;37038;50.182;8.624;2023-06-14T01:23:25;17.00;18.30
51011;DHT22;37038;50.182;8.624;2023-06-14T01:26:21;16.80;18.90
51011;DHT22;37038;50.182;8.624;2023-06-14T01:29:09;16.80;19.30
51011;DHT22;37038;50.182;8.624;2023-06-14T01:31:59;16.80;19.40
51011;DHT22;37038;50.182;8.624;2023-06-14T01:34:47;16.80;19.20
51011;DHT22;37038;50.182;8.624;2023-06-14T01:37:35;16.80;19.50
51011;DHT22;37038;50.182;8.624;2023-06-14T01:40:24;16.70;19.80
51011;DHT22;37038;50.182;8.624;2023-06-14T01:43:14;16.60;20.40
51011;DHT22;37038;50.182;8.624;2023-06-14T01:46:03;16.70;20.50
51011;DHT22;37038;50.182;8.624;2023-06-14T01:48:51;16.60;21.00
51011;DHT22;37038;50.182;8.624;2023-06-14T01:51:39;16.50;21.80
51011;DHT22;37038;50.182;8.624;2023-06-14T01:54:26;16.20;22.40
51011;DHT22;37038;50.182;8.624;2023-06-14T01:57:14;16.10;23.50
51011;DHT22;37038;50.182;8.624;2023-06-14T02:00:03;16.10;23.10
51011;DHT22;37038;50.182;8.624;2023-06-14T02:02:51;16.20;23.30
51011;DHT22;37038;50.182;8.624;2023-06-14T02:05:39;16.30;22.70
51011;DHT22;37038;50.182;8.624;2023-06-14T02:08:27;16.50;22.90
51011;DHT22;37038;50.182;8.624;2023-06-14T02:11:14;16.20;24.00
51011;DHT22;37038;50.182;8.624;2023-06-14T02:14:02;16.10;24.40
51011;DHT22;37038;50.182;8.624;2023-06-14T02:16:50;16.20;25.20
51011;DHT22;37038;50.182;8.624;2023-06-14T02:19:37;16.20;25.60
51011;DHT22;37038;50.182;8.624;2023-06-14T02:22:26;16.10;26.40
51011;DHT22;37038;50.182;8.624;2023-06-14T02:25:13;16.00;26.80
51011;DHT22;37038;50.182;8.624;2023-06-14T02:28:01;16.00;27.70
51011;DHT22;37038;50.182;8.624;2023-06-14T02:30:49;15.80;28.70
51011;DHT22;37038;50.182;8.624;2023-06-14T02:33:37;15.70;31.30
51011;DHT22;37038;50.182;8.624;2023-06-14T02:36:25;15.70;31.60
51011;DHT22;37038;50.182;8.624;2023-06-14T02:39:13;15.60;32.00
51011;DHT22;37038;50.182;8.624;2023-06-14T02:42:01;15.50;34.20
51011;DHT22;37038;50.182;8.624;2023-06-14T02:44:48;15.60;34.90
51011;DHT22;37038;50.182;8.624;2023-06-14T02:47:38;15.50;35.80
51011;DHT22;37038;50.182;8.624;2023-06-14T02:50:26;15.40;38.00
51011;DHT22;37038;50.182;8.624;2023-06-14T02:53:15;15.30;42.00
51011;DHT22;37038;50.182;8.624;2023-06-14T02:56:03;15.30;42.10
51011;DHT22;37038;50.182;8.624;2023-06-14T02:58:51;15.20;46.20
51011;DHT22;37038;50.182;8.624;2023-06-14T03:01:39;15.20;45.60
51011;DHT22;37038;50.182;8.624;2023-06-14T03:04:28;15.20;48.20
51011;DHT22;37038;50.182;8.624;2023-06-14T03:07:16;15.00;51.90
51011;DHT22;37038;50.182;8.624;2023-06-14T03:10:08;14.80;54.00
51011;DHT22;37038;50.182;8.624;2023-06-14T03:12:56;14.60;57.90
51011;DHT22;37038;50.182;8.624;2023-06-14T03:15:44;14.60;59.90
51011;DHT22;37038;50.182;8.624;2023-06-14T03:18:32;14.60;62.20
51011;DHT22;37038;50.182;8.624;2023-06-14T03:21:23;14.60;63.70
51011;DHT22;37038;50.182;8.624;2023-06-14T03:24:10;14.70;64.00
51011;DHT22;37038;50.182;8.624;2023-06-14T03:26:58;14.70;64.30
51011;DHT22;37038;50.182;8.624;2023-06-14T03:29:45;14.80;64.40
51011;DHT22;37038;50.182;8.624;2023-06-14T03:32:33;14.80;67.30
51011;DHT22;37038;50.182;8.624;2023-06-14T03:35:21;14.90;68.90
51011;DHT22;37038;50.182;8.624;2023-06-14T03:38:09;15.00;70.00
51011;DHT22;37038;50.182;8.624;2023-06-14T03:40:56;15.00;70.50
51011;DHT22;37038;50.182;8.624;2023-06-14T03:43:44;14.70;72.20
51011;DHT22;37038;50.182;8.624;2023-06-14T03:46:32;14.70;71.60
51011;DHT22;37038;50.182;8.624;2023-06-14T03:49:22;14.90;70.90
51011;DHT22;37038;50.182;8.624;2023-06-14T03:52:10;15.10;71.40
51011;DHT22;37038;50.182;8.624;2023-06-14T03:54:57;15.20;73.70
51011;DHT22;37038;50.182;8.624;2023-06-14T03:57:51;15.00;76.00
51011;DHT22;37038;50.182;8.624;2023-06-14T04:00:41;15.00;78.50
51011;DHT22;37038;50.182;8.624;2023-06-14T04:03:28;15.10;80.50
51011;DHT22;37038;50.182;8.624;2023-06-14T04:06:17;15.10;81.30
51011;DHT22;37038;50.182;8.624;2023-06-14T04:09:06;15.30;79.10
51011;DHT22;37038;50.182;8.624;2023-06-14T04:11:54;15.50;79.40
51011;DHT22;37038;50.182;8.624;2023-06-14T04:14:42;15.50;78.80
51011;DHT22;37038;50.182;8.624;2023-06-14T04:17:30;16.20;75.90
51011;DHT22;37038;50.182;8.624;2023-06-14T04:20:17;16.90;68.40
51011;DHT22;37038;50.182;8.624;2023-06-14T04:23:15;17.60;62.20
51011;DHT22;37038;50.182;8.624;2023-06-14T04:26:05;18.30;56.70
51011;DHT22;37038;50.182;8.624;2023-06-14T04:28:53;18.40;55.00
51011;DHT22;37038;50.182;8.624;2023-06-14T04:31:47;18.20;54.20
51011;DHT22;37038;50.182;8.624;2023-06-14T04:34:34;18.50;52.80
51011;DHT22;37038;50.182;8.624;2023-06-14T04:37:27;18.20;54.90
51011;DHT22;37038;50.182;8.624;2023-06-14T04:40:17;17.90;55.30
51011;DHT22;37038;50.182;8.624;2023-06-14T04:43:04;17.40;57.60
51011;DHT22;37038;50.182;8.624;2023-06-14T04:45:54;17.30;61.40
51011;DHT22;37038;50.182;8.624;2023-06-14T04:48:44;17.50;63.20
51011;DHT22;37038;50.182;8.624;2023-06-14T04:51:33;17.60;62.90
51011;DHT22;37038;50.182;8.624;2023-06-14T04:54:20;17.90;59.40
51011;DHT22;37038;50.182;8.624;2023-06-14T04:57:09;18.10;58.80
51011;DHT22;37038;50.182;8.624;2023-06-14T05:00:01;18.20;58.10
51011;DHT22;37038;50.182;8.624;2023-06-14T05:02:53;18.20;59.40
51011;DHT22;37038;50.182;8.624;2023-06-14T05:05:41;18.40;58.00
51011;DHT22;37038;50.182;8.624;2023-06-14T05:08:28;18.40;58.80
51011;DHT22;37038;50.182;8.624;2023-06-14T05:11:19;18.40;56.70
51011;DHT22;37038;50.182;8.624;2023-06-14T05:14:07;18.70;54.90
51011;DHT22;37038;50.182;8.624;2023-06-14T05:16:58;19.20;53.90
51011;DHT22;37038;50.182;8.624;2023-06-14T05:19:52;20.40;48.90
51011;DHT22;37038;50.182;8.624;2023-06-14T05:22:40;21.20;41.60
51011;DHT22;37038;50.182;8.624;2023-06-14T05:25:28;21.80;38.20
51011;DHT22;37038;50.182;8.624;2023-06-14T05:28:18;21.90;36.10
51011;DHT22;37038;50.182;8.624;2023-06-14T05:31:13;22.40;31.10
51011;DHT22;37038;50.182;8.624;2023-06-14T05:34:04;23.10;29.50
51011;DHT22;37038;50.182;8.624;2023-06-14T05:36:54;22.60;28.40
51011;DHT22;37038;50.182;8.624;2023-06-14T05:39:46;22.90;29.20
51011;DHT22;37038;50.182;8.624;2023-06-14T05:42:36;22.50;26.60
51011;DHT22;37038;50.182;8.624;2023-06-14T05:45:28;22.80;26.70
51011;DHT22;37038;50.182;8.624;2023-06-14T05:48:19;23.20;26.00
51011;DHT22;37038;50.182;8.624;2023-06-14T05:51:09;22.90;26.20
51011;DHT22;37038;50.182;8.624;2023-06-14T05:54:01;23.20;25.60
51011;DHT22;37038;50.182;8.624;2023-06-14T05:56:53;24.10;24.10
51011;DHT22;37038;50.182;8.624;2023-06-14T05:59:44;23.50;24.20
51011;DHT22;37038;50.182;8.624;2023-06-14T06:02:34;23.40;23.80
51011;DHT22;37038;50.182;8.624;2023-06-14T06:05:25;23.80;23.90
51011;DHT22;37038;50.182;8.624;2023-06-14T06:08:15;24.30;23.20
51011;DHT22;37038;50.182;8.624;2023-06-14T06:11:06;24.30;21.50
51011;DHT22;37038;50.182;8.624;2023-06-14T06:13:56;24.20;21.40
51011;DHT22;37038;50.182;8.624;2023-06-14T06:16:47;24.60;20.80
51011;DHT22;37038;50.182;8.624;2023-06-14T06:19:37;25.10;21.10
51011;DHT22;37038;50.182;8.624;2023-06-14T06:22:28;25.40;19.00
51011;DHT22;37038;50.182;8.624;2023-06-14T06:25:17;25.30;18.90
51011;DHT22;37038;50.182;8.624;2023-06-14T06:28:08;25.30;18.70
51011;DHT22;37038;50.182;8.624;2023-06-14T06:31:02;25.30;18.50
51011;DHT22;37038;50.182;8.624;2023-06-14T06:33:54;25.40;19.00
51011;DHT22;37038;50.182;8.624;2023-06-14T06:36:44;25.90;16.70
51011;DHT22;37038;50.182;8.624;2023-06-14T06:39:34;26.20;17.30
51011;DHT22;37038;50.182;8.624;2023-06-14T06:42:27;26.70;14.50
51011;DHT22;37038;50.182;8.624;2023-06-14T06:45:20;27.10;14.80
51011;DHT22;37038;50.182;8.624;2023-06-14T06:48:14;27.30;14.60
51011;DHT22;37038;50.182;8.624;2023-06-14T06:51:05;27.10;14.80
51011;DHT22;37038;50.182;8.624;2023-06-14T06:53:56;27.80;14.10
51011;DHT22;37038;50.182;8.624;2023-06-14T06:56:46;27.50;12.90
51011;DHT22;37038;50.182;8.624;2023-06-14T06:59:36;27.40;12.60
51011;DHT22;37038;50.182;8.624;2023-06-14T07:02:26;27.40;12.70
51011;DHT22;37038;50.182;8.624;2023-06-14T07:05:14;27.90;12.30
51011;DHT22;37038;50.182;8.624;2023-06-14T07:08:02;27.30;12.70
51011;DHT22;37038;50.182;8.624;2023-06-14T07:10:53;28.60;10.80
51011;DHT22;37038;50.182;8.624;2023-06-14T07:13:45;28.40;10.20
51011;DHT22;37038;50.182;8.624;2023-06-14T07:16:35;27.50;11.10
51011;DHT22;37038;50.182;8.624;2023-06-14T07:19:27;28.00;11.40
51011;DHT22;37038;50.182;8.624;2023-06-14T07:22:17;27.30;11.70
51011;DHT22;37038;50.182;8.624;2023-06-14T07:25:05;27.30;11.90
51011;DHT22;37038;50.182;8.624;2023-06-14T07:27:55;27.70;11.80
51011;DHT22;37038;50.182;8.624;2023-06-14T07:30:44;27.90;10.60
51011;DHT22;37038;50.182;8.624;2023-06-14T07:33:35;28.20;10.60
51011;DHT22;37038;50.182;8.624;2023-06-14T07:36:25;28.20;10.10
51011;DHT22;37038;50.182;8.624;2023-06-14T07:39:16;27.50;9.90
51011;DHT22;37038;50.182;8.624;2023-06-14T07:42:04;28.30;10.40
51011;DHT22;37038;50.182;8.624;2023-06-14T07:44:54;29.10;9.40
51011;DHT22;37038;50.182;8.624;2023-06-14T07:47:45;28.90;9.20
51011;DHT22;37038;50.182;8.624;2023-06-14T07:50:34;29.50;8.30
51011;DHT22;37038;50.182;8.624;2023-06-14T07:53:25;27.90;9.20
51011;DHT22;37038;50.182;8.624;2023-06-14T07:56:17;28.00;9.40
51011;DHT22;37038;50.182;8.624;2023-06-14T07:59:06;28.20;9.80
51011;DHT22;37038;50.182;8.624;2023-06-14T08:01:56;28.60;9.50
51011;DHT22;37038;50.182;8.624;2023-06-14T08:04:45;28.60;9.20
51011;DHT22;37038;50.182;8.624;2023-06-14T08:07:37;28.70;8.10
51011;DHT22;37038;50.182;8.624;2023-06-14T08:10:31;28.90;8.70
51011;DHT22;37038;50.182;8.624;2023-06-14T08:13:21;29.20;8.00
51011;DHT22;37038;50.182;8.624;2023-06-14T08:16:11;28.00;6.70
51011;DHT22;37038;50.182;8.624;2023-06-14T08:19:01;28.80;7.80
51011;DHT22;37038;50.182;8.624;2023-06-14T08:21:51;29.10;7.40
51011;DHT22;37038;50.182;8.624;2023-06-14T08:24:43;29.60;6.40
51011;DHT22;37038;50.182;8.624;2023-06-14T08:27:31;29.80;4.80
51011;DHT22;37038;50.182;8.624;2023-06-14T08:30:23;29.60;4.10
51011;DHT22;37038;50.182;8.624;2023-06-14T08:33:13;29.50;2.40
51011;DHT22;37038;50.182;8.624;2023-06-14T08:36:05;29.80;2.50
51011;DHT22;37038;50.182;8.624;2023-06-14T08:38:57;29.60;2.20
51011;DHT22;37038;50.182;8.624;2023-06-14T08:41:49;30.20;3.00
51011;DHT22;37038;50.182;8.624;2023-06-14T08:44:40;30.30;1.10
51011;DHT22;37038;50.182;8.624;2023-06-14T08:47:30;29.50;1.60
51011;DHT22;37038;50.182;8.624;2023-06-14T08:50:33;28.80;3.50
51011;DHT22;37038;50.182;8.624;2023-06-14T08:53:30;29.50;2.00
51011;DHT22;37038;50.182;8.624;2023-06-14T08:56:28;29.60;1.60
51011;DHT22;37038;50.182;8.624;2023-06-14T08:59:19;29.70;1.90
51011;DHT22;37038;50.182;8.624;2023-06-14T09:02:15;30.60;1.00
51011;DHT22;37038;50.182;8.624;2023-06-14T09:05:10;30.40;1.50
51011;DHT22;37038;50.182;8.624;2023-06-14T09:07:59;30.60;1.00
51011;DHT22;37038;50.182;8.624;2023-06-14T09:10:57;31.50;1.00
51011;DHT22;37038;50.182;8.624;2023-06-14T09:13:48;31.20;1.00
51011;DHT22;37038;50.182;8.624;2023-06-14T09:16:38;31.60;1.00
51011;DHT22;37038;50.182;8.624;2023-06-14T09:19:30;31.80;1.00
51011;DHT22;37038;50.182;8.624;2023-06-14T09:22:21;32.30;1.00
51011;DHT22;37038;50.182;8.624;2023-06-14T09:25:10;31.70;1.00
51011;DHT22;37038;50.182;8.624;2023-06-14T09:28:28;30.60;1.00
51011;DHT22;37038;50.182;8.624;2023-06-14T09:31:20;31.60;1.00
51011;DHT22;37038;50.182;8.624;2023-06-14T09:34:11;31.70;1.00
51011;DHT22;37038;50.182;8.624;2023-06-14T09:37:02;32.10;1.00
51011;DHT22;37038;50.182;8.624;2023-06-14T09:39:55;32.10;1.00
51011;DHT22;37038;50.182;8.624;2023-06-14T09:42:48;33.00;1.00
51011;DHT22;37038;50.182;8.624;2023-06-14T09:45:39;33.10;1.00
51011;DHT22;37038;50.182;8.624;2023-06-14T09:48:31;33.00;1.00
51011;DHT22;37038;50.182;8.624;2023-06-14T09:51:23;29.90;1.00
51011;DHT22;37038;50.182;8.624;2023-06-14T09:54:17;27.50;1.00
51011;DHT22;37038;50.182;8.624;2023-06-14T09:57:12;28.40;1.00
51011;DHT22;37038;50.182;8.624;2023-06-14T10:00:03;29.80;1.00
51011;DHT22;37038;50.182;8.624;2023-06-14T10:06:14;27.40;1.00
51011;DHT22;37038;50.182;8.624;2023-06-14T10:09:07;28.30;1.00
51011;DHT22;37038;50.182;8.624;2023-06-14T10:12:02;30.50;1.00
51011;DHT22;37038;50.182;8.624;2023-06-14T10:14:56;29.20;1.00
51011;DHT22;37038;50.182;8.624;2023-06-14T10:18:11;28.40;1.00
51011;DHT22;37038;50.182;8.624;2023-06-14T10:21:36;29.60;1.00
51011;DHT22;37038;50.182;8.624;2023-06-14T10:24:53;29.20;1.00
51011;DHT22;37038;50.182;8.624;2023-06-14T10:27:47;28.90;1.00
51011;DHT22;37038;50.182;8.624;2023-06-14T10:30:39;29.90;1.00
51011;DHT22;37038;50.182;8.624;2023-06-14T10:33:28;32.60;1.00
51011;DHT22;37038;50.182;8.624;2023-06-14T10:36:26;33.10;1.00
51011;DHT22;37038;50.182;8.624;2023-06-14T10:39:20;33.00;1.00
51011;DHT22;37038;50.182;8.624;2023-06-14T10:42:12;33.30;1.00
51011;DHT22;37038;50.182;8.624;2023-06-14T10:45:04;33.30;1.00
51011;DHT22;37038;50.182;8.624;2023-06-14T10:47:58;32.30;1.00
51011;DHT22;37038;50.182;8.624;2023-06-14T10:50:49;32.90;1.00
51011;DHT22;37038;50.182;8.624;2023-06-14T10:53:42;31.90;1.00
51011;DHT22;37038;50.182;8.624;2023-06-14T10:56:32;32.10;1.00
51011;DHT22;37038;50.182;8.624;2023-06-14T10:59:21;30.50;1.00
51011;DHT22;37038;50.182;8.624;2023-06-14T11:05:30;29.20;1.00
51011;DHT22;37038;50.182;8.624;2023-06-14T11:12:02;31.80;1.00
51011;DHT22;37038;50.182;8.624;2023-06-14T11:14:53;32.80;1.00
51011;DHT22;37038;50.182;8.624;2023-06-14T11:17:54;32.90;1.00
51011;DHT22;37038;50.182;8.624;2023-06-14T11:20:48;33.30;1.00
51011;DHT22;37038;50.182;8.624;2023-06-14T11:23:38;33.10;1.00
51011;DHT22;37038;50.182;8.624;2023-06-14T11:26:31;33.60;1.00
51011;DHT22;37038;50.182;8.624;2023-06-14T11:29:22;32.40;1.00
51011;DHT22;37038;50.182;8.624;2023-06-14T11:32:14;32.10;1.00
51011;DHT22;37038;50.182;8.624;2023-06-14T11:35:05;34.30;1.00
51011;DHT22;37038;50.182;8.624;2023-06-14T11:37:56;34.60;1.00
51011;DHT22;37038;50.182;8.624;2023-06-14T11:40:46;34.20;1.00
51011;DHT22;37038;50.182;8.624;2023-06-14T11:43:37;32.50;1.00
51011;DHT22;37038;50.182;8.624;2023-06-14T11:46:28;30.90;1.00
51011;DHT22;37038;50.182;8.624;2023-06-14T11:49:18;32.20;1.00
51011;DHT22;37038;50.182;8.624;2023-06-14T11:52:06;32.60;1.00
51011;DHT22;37038;50.182;8.624;2023-06-14T11:54:57;31.10;1.00
51011;DHT22;37038;50.182;8.624;2023-06-14T11:57:50;29.80;1.00
51011;DHT22;37038;50.182;8.624;2023-06-14T12:00:40;28.30;1.00
51011;DHT22;37038;50.182;8.624;2023-06-14T12:03:33;26.30;1.00
51011;DHT22;37038;50.182;8.624;2023-06-14T12:06:30;27.20;1.00
51011;DHT22;37038;50.182;8.624;2023-06-14T12:09:28;28.40;1.00
51011;DHT22;37038;50.182;8.624;2023-06-14T12:12:24;28.10;1.00
51011;DHT22;37038;50.182;8.624;2023-06-14T12:15:17;30.30;1.00
51011;DHT22;37038;50.182;8.624;2023-06-14T12:18:13;33.00;1.00
51011;DHT22;37038;50.182;8.624;2023-06-14T12:21:04;32.00;1.00
51011;DHT22;37038;50.182;8.624;2023-06-14T12:23:57;32.90;1.00
51011;DHT22;37038;50.182;8.624;2023-06-14T12:26:47;33.30;1.00
51011;DHT22;37038;50.182;8.624;2023-06-14T12:29:38;31.40;1.00
51011;DHT22;37038;50.182;8.624;2023-06-14T12:32:28;29.20;1.00
51011;DHT22;37038;50.182;8.624;2023-06-14T12:35:19;29.60;1.00
51011;DHT22;37038;50.182;8.624;2023-06-14T12:38:11;31.40;1.00
51011;DHT22;37038;50.182;8.624;2023-06-14T12:41:03;29.30;1.00
51011;DHT22;37038;50.182;8.624;2023-06-14T12:43:57;27.20;1.00
51011;DHT22;37038;50.182;8.624;2023-06-14T12:46:50;26.60;1.00
51011;DHT22;37038;50.182;8.624;2023-06-14T12:49:44;27.40;1.00
51011;DHT22;37038;50.182;8.624;2023-06-14T12:52:35;26.60;1.00
51011;DHT22;37038;50.182;8.624;2023-06-14T12:55:25;26.80;1.00
51011;DHT22;37038;50.182;8.624;2023-06-14T12:58:16;27.20;1.00
51011;DHT22;37038;50.182;8.624;2023-06-14T13:01:07;27.30;1.00
51011;DHT22;37038;50.182;8.624;2023-06-14T13:03:57;27.90;1.00
51011;DHT22;37038;50.182;8.624;2023-06-14T13:06:47;28.00;1.00
51011;DHT22;37038;50.182;8.624;2023-06-14T13:09:38;28.40;1.00
51011;DHT22;37038;50.182;8.624;2023-06-14T13:12:28;28.60;1.00
51011;DHT22;37038;50.182;8.624;2023-06-14T13:15:18;27.00;1.00
51011;DHT22;37038;50.182;8.624;2023-06-14T13:18:06;25.80;1.00
51011;DHT22;37038;50.182;8.624;2023-06-14T13:20:58;25.90;1.00
51011;DHT22;37038;50.182;8.624;2023-06-14T13:23:48;27.80;1.00
51011;DHT22;37038;50.182;8.624;2023-06-14T13:26:38;31.00;1.00
51011;DHT22;37038;50.182;8.624;2023-06-14T13:29:29;32.60;1.00
51011;DHT22;37038;50.182;8.624;2023-06-14T13:32:22;32.60;1.00
51011;DHT22;37038;50.182;8.624;2023-06-14T13:35:09;30.80;1.00
51011;DHT22;37038;50.182;8.624;2023-06-14T13:38:00;31.10;1.00
51011;DHT22;37038;50.182;8.624;2023-06-14T13:40:52;30.60;1.00
51011;DHT22;37038;50.182;8.624;2023-06-14T13:43:42;31.70;1.00
51011;DHT22;37038;50.182;8.624;2023-06-14T13:46:32;33.30;1.00
51011;DHT22;37038;50.182;8.624;2023-06-14T13:49:24;32.80;1.00
51011;DHT22;37038;50.182;8.624;2023-06-14T13:52:17;33.40;1.00
51011;DHT22;37038;50.182;8.624;2023-06-14T13:55:07;32.70;1.00
51011;DHT22;37038;50.182;8.624;2023-06-14T13:57:57;32.40;1.00
51011;DHT22;37038;50.182;8.624;2023-06-14T14:00:47;32.50;1.00
51011;DHT22;37038;50.182;8.624;2023-06-14T14:03:37;31.90;1.00
51011;DHT22;37038;50.182;8.624;2023-06-14T14:06:30;32.50;1.00
51011;DHT22;37038;50.182;8.624;2023-06-14T14:09:21;32.20;1.00
51011;DHT22;37038;50.182;8.624;2023-06-14T14:12:14;32.80;1.00
51011;DHT22;37038;50.182;8.624;2023-06-14T14:15:03;32.10;1.00
51011;DHT22;37038;50.182;8.624;2023-06-14T14:17:54;32.90;1.00
51011;DHT22;37038;50.182;8.624;2023-06-14T14:20:46;32.40;1.00
51011;DHT22;37038;50.182;8.624;2023-06-14T14:23:36;33.20;1.00
51011;DHT22;37038;50.182;8.624;2023-06-14T14:26:29;33.90;1.00
51011;DHT22;37038;50.182;8.624;2023-06-14T14:29:21;33.90;1.00
51011;DHT22;37038;50.182;8.624;2023-06-14T14:32:15;34.10;1.00
51011;DHT22;37038;50.182;8.624;2023-06-14T14:35:04;33.50;1.00
51011;DHT22;37038;50.182;8.624;2023-06-14T14:37:54;31.70;1.00
51011;DHT22;37038;50.182;8.624;2023-06-14T14:40:43;32.20;1.00
51011;DHT22;37038;50.182;8.624;2023-06-14T14:43:36;32.90;1.00
51011;DHT22;37038;50.182;8.624;2023-06-14T14:46:27;31.90;1.00
51011;DHT22;37038;50.182;8.624;2023-06-14T14:49:17;32.70;1.00
51011;DHT22;37038;50.182;8.624;2023-06-14T14:52:05;33.60;1.00
51011;DHT22;37038;50.182;8.624;2023-06-14T14:55:12;33.40;1.00
51011;DHT22;37038;50.182;8.624;2023-06-14T14:58:04;34.00;1.00
51011;DHT22;37038;50.182;8.624;2023-06-14T15:00:56;34.70;1.00
51011;DHT22;37038;50.182;8.624;2023-06-14T15:03:47;34.90;1.00
51011;DHT22;37038;50.182;8.624;2023-06-14T15:06:42;34.90;1.00
51011;DHT22;37038;50.182;8.624;2023-06-14T15:09:32;33.80;1.00
51011;DHT22;37038;50.182;8.624;2023-06-14T15:12:22;32.50;1.00
51011;DHT22;37038;50.182;8.624;2023-06-14T15:15:12;31.20;1.00
51011;DHT22;37038;50.182;8.624;2023-06-14T15:18:02;30.90;1.00
51011;DHT22;37038;50.182;8.624;2023-06-14T15:20:53;31.60;1.00
51011;DHT22;37038;50.182;8.624;2023-06-14T15:23:43;31.20;1.00
51011;DHT22;37038;50.182;8.624;2023-06-14T15:26:32;28.70;1.00
51011;DHT22;37038;50.182;8.624;2023-06-14T15:29:22;28.60;1.00
51011;DHT22;37038;50.182;8.624;2023-06-14T15:32:10;29.50;1.00
51011;DHT22;37038;50.182;8.624;2023-06-14T15:35:00;29.00;1.00
51011;DHT22;37038;50.182;8.624;2023-06-14T15:37:51;28.00;1.00
51011;DHT22;37038;50.182;8.624;2023-06-14T15:40:41;27.40;1.00
51011;DHT22;37038;50.182;8.624;2023-06-14T15:43:31;26.60;1.00
51011;DHT22;37038;50.182;8.624;2023-06-14T15:46:23;26.70;1.00
51011;DHT22;37038;50.182;8.624;2023-06-14T15:49:14;26.50;1.00
51011;DHT22;37038;50.182;8.624;2023-06-14T15:52:04;27.50;1.00
51011;DHT22;37038;50.182;8.624;2023-06-14T15:54:52;29.80;1.00
51011;DHT22;37038;50.182;8.624;2023-06-14T15:57:42;31.10;1.00
51011;DHT22;37038;50.182;8.624;2023-06-14T16:00:32;31.20;1.00
51011;DHT22;37038;50.182;8.624;2023-06-14T16:03:26;32.30;1.00
51011;DHT22;37038;50.182;8.624;2023-06-14T16:06:17;32.50;1.00
51011;DHT22;37038;50.182;8.624;2023-06-14T16:09:06;31.60;1.00
51011;DHT22;37038;50.182;8.624;2023-06-14T16:11:56;32.00;1.00
51011;DHT22;37038;50.182;8.624;2023-06-14T16:14:50;31.40;1.00
51011;DHT22;37038;50.182;8.624;2023-06-14T16:17:41;31.90;1.00
51011;DHT22;37038;50.182;8.624;2023-06-14T16:20:34;32.20;1.00
51011;DHT22;37038;50.182;8.624;2023-06-14T16:23:24;32.30;1.00
51011;DHT22;37038;50.182;8.624;2023-06-14T16:26:15;32.20;1.00
51011;DHT22;37038;50.182;8.624;2023-06-14T16:29:07;32.10;1.00
51011;DHT22;37038;50.182;8.624;2023-06-14T16:31:58;31.20;1.00
51011;DHT22;37038;50.182;8.624;2023-06-14T16:34:50;30.90;1.00
51011;DHT22;37038;50.182;8.624;2023-06-14T16:37:40;30.30;1.00
51011;DHT22;37038;50.182;8.624;2023-06-14T16:40:27;30.60;1.00
51011;DHT22;37038;50.182;8.624;2023-06-14T16:43:17;29.90;1.00
51011;DHT22;37038;50.182;8.624;2023-06-14T16:46:05;28.70;1.00
51011;DHT22;37038;50.182;8.624;2023-06-14T16:48:57;27.40;1.00
51011;DHT22;37038;50.182;8.624;2023-06-14T16:51:47;27.00;1.00
51011;DHT22;37038;50.182;8.624;2023-06-14T16:54:37;27.40;1.00
51011;DHT22;37038;50.182;8.624;2023-06-14T16:57:27;28.20;1.00
51011;DHT22;37038;50.182;8.624;2023-06-14T17:00:15;28.20;1.00
51011;DHT22;37038;50.182;8.624;2023-06-14T17:03:06;28.20;1.00
51011;DHT22;37038;50.182;8.624;2023-06-14T17:05:58;28.50;1.00
51011;DHT22;37038;50.182;8.624;2023-06-14T17:08:46;28.50;1.00
51011;DHT22;37038;50.182;8.624;2023-06-14T17:11:36;28.40;1.00
51011;DHT22;37038;50.182;8.624;2023-06-14T17:14:25;28.20;1.00
51011;DHT22;37038;50.182;8.624;2023-06-14T17:17:15;27.90;1.00
51011;DHT22;37038;50.182;8.624;2023-06-14T17:20:04;28.40;1.00
51011;DHT22;37038;50.182;8.624;2023-06-14T17:22:54;28.50;1.00
51011;DHT22;37038;50.182;8.624;2023-06-14T17:25:42;29.00;1.00
51011;DHT22;37038;50.182;8.624;2023-06-14T17:28:33;28.90;1.00
51011;DHT22;37038;50.182;8.624;2023-06-14T17:31:23;28.90;1.00
51011;DHT22;37038;50.182;8.624;2023-06-14T17:34:13;29.70;1.00
51011;DHT22;37038;50.182;8.624;2023-06-14T17:37:03;29.50;1.00
51011;DHT22;37038;50.182;8.624;2023-06-14T17:39:52;29.20;1.00
51011;DHT22;37038;50.182;8.624;2023-06-14T17:42:42;29.60;1.00
51011;DHT22;37038;50.182;8.624;2023-06-14T17:45:29;29.30;1.00
51011;DHT22;37038;50.182;8.624;2023-06-14T17:48:17;28.30;1.00
51011;DHT22;37038;50.182;8.624;2023-06-14T17:51:07;27.90;1.00
51011;DHT22;37038;50.182;8.624;2023-06-14T17:53:57;27.40;1.00
51011;DHT22;37038;50.182;8.624;2023-06-14T17:56:47;27.30;1.00
51011;DHT22;37038;50.182;8.624;2023-06-14T17:59:35;27.00;1.00
51011;DHT22;37038;50.182;8.624;2023-06-14T18:02:25;26.90;1.00
51011;DHT22;37038;50.182;8.624;2023-06-14T18:05:15;26.50;1.00
51011;DHT22;37038;50.182;8.624;2023-06-14T18:08:04;26.40;1.00
51011;DHT22;37038;50.182;8.624;2023-06-14T18:10:55;26.50;1.00
51011;DHT22;37038;50.182;8.624;2023-06-14T18:13:45;26.70;1.00
51011;DHT22;37038;50.182;8.624;2023-06-14T18:16:37;26.70;1.00
51011;DHT22;37038;50.182;8.624;2023-06-14T18:19:31;26.60;1.00